Relevés horaires Laegern (Suisse)


Relevés horaires à Laegern - Dimanche 30 Mai 2021
Heure UTC1 Température [°C] Vent [km/h] Hum. [%] Pres.4 [hPa] Visi. [Km] Nébu. [octa] Préc.5 [mm] Cond.
2m. Res. Ros. Dir.2 Vit. Moy. Raf.3
23:00 9.4 9.4 1.4 NNE 0.0 -- 31.5 57 850(-0.5/3h) -- -- -- --
22:00 10.0 10.0 1.5 NNE 0.0 -- 33.3 55 850(-0.1/3h) -- -- -- --
21:00 10.7 10.7 1.4 NE 0.0 -- 42.6 53 850(0.1/3h) -- -- -- --
20:00 11.5 11.5 1.2 NE 0.0 -- 40.7 49 850(0.0/3h) -- -- -- --
19:00 12.4 12.4 1.5 NE 0.0 -- 38.9 47 850(-0.1/3h) -- -- -- --
18:00 13.3 13.3 1.1 NE 0.0 -- 46.3 43 850(-0.5/3h) -- -- -- --
17:00 13.8 13.8 1.2 NNE 0.0 -- 46.3 42 850(-0.7/3h) -- -- -- --
16:00 14.2 14.2 1.4 NNE 0.0 -- 46.3 42 850(-0.9/3h) -- -- -- --
14:00 14.3 14.3 0.3 NE 0.0 -- 44.4 38 850(-0.9/3h) -- -- -- --
13:00 13.9 13.9 0.6 NE 0.0 -- 42.6 40 850(-0.6/3h) -- -- -- --
12:00 13.3 13.3 1.3 NE 0.0 -- 50.0 44 850(-0.2/3h) -- -- -- --
11:00 13.0 13.0 2.1 NE 0.0 -- 44.4 47 850(0.2/3h) -- -- -- --
10:00 12.3 12.3 2.3 NE 0.0 -- 50.0 50 850(0.6/3h) -- -- -- --
09:00 11.7 11.7 3.3 NE 0.0 -- 42.6 56 850(0.6/3h) -- -- -- --
08:00 10.0 10.0 4.1 NNE 0.0 -- 35.2 67 850(0.3/3h) -- -- -- --
06:00 7.3 7.3 3.1 NNE 0.0 -- 35.2 75 850(-0.6/3h) -- -- -- --
05:00 6.8 6.8 2.6 NNE 0.0 -- 29.6 75 850(-0.4/3h) -- -- -- --
04:00 7.7 7.7 2.4 NE 0.0 -- 33.3 69 850(-0.3/3h) -- -- -- --
03:00 8.1 8.1 2.5 NE 0.0 -- 31.5 68 850(-0.6/3h) -- -- -- --
02:00 8.4 8.4 2.4 NE 0.0 -- 31.5 66 850(-0.7/3h) -- -- -- --
01:00 8.8 8.8 2.5 NE 0.0 -- 29.6 65 850(-0.4/3h) -- -- -- --
00:00 9.2 9.2 2.4 NE 0.0 -- 33.3 62 850(0.2/3h) -- -- -- --

1 Coordinated Universal Time. Actuellement il est 03:00 locale et 01:00 UTC.

2 Le vent souffle depuis la direction indiquée vers la direction oposée.

3 Les rafales max. sont disponible 40 min après l'heure du relevé.

4 Pour les stations d'altitude (plus de 600m) le géopotentiel du niveau le plus proche de la pression obligatoire est indiqué.

5 Les stations disposant d'un diffuseur peuvent indiquer "trace". Cela signifie que des précipitations ont touchés le sol mais que la quantité est inférieure à 0.1 mm.

Copyright

Les données affichées sur cette page sont la propriété exclusive de Météo Suisse.

Récapitulatif de la journée
Température [°C] Vent [km/h] Ensoleillement4 [h] Precipitations totale5 [mm] Pression [Hpa]
Min1 Max.2 Moy.3 Max. Min Max.
6.7 14.4 0 50.0 0 h 0 min 0 850.0 850.0

1 Température minimale relevée entre 18:00 UTC la veille et 18:00 UTC le jour donné.

2 Température maximale relevée entre 06:00 UTC le jour donné et 06:00 UTC le lendemain.

3 Vent moyen de la journée basé sur les relevés horaires.

4 Ensoleillement en heures relevé entre 06:00 UTC la veille et 06:00 UTC le jour donné.

5 Précipitations totales tombées entre 06:00 UTC la jour donné et 06:00 UTC le lendemain.

Graphiques horaires